MV Causeway Supplier — ZR2426 — position and weather

sailwx.info

Track history (hours):
 
Tides and Currents Weather Stations Pressure Air Temp Water Temp Dewpoint Dewpoint Depression Visibility Wind Speed Wind Dir Waves Ship Positions

MV Causeway Supplier

Last reported at 2015-Mar-03 17:33 UTC. Time now 2015-Mar-04 00:16 UTC.
Position S 29°53' E 031°03'.

Length 22 m; draft 2.7 m.

Type: . MMSI: 601041200.

Date/timePositionNaut miles runAvg speedWind from/ knotsBaromVisibWave heightAir tempDewpointWater temp
2015-Mar-03 17:33S 29°53' E 031°03'8 7.9
2015-Mar-03 16:33S 29°53' E 031°12'4 3.5
2015-Mar-03 15:33S 29°53' E 031°08'6 6.3
2015-Mar-03 14:33S 29°52' E 031°01'2 1.7
2015-Mar-03 13:33S 29°54' E 031°00'6 6.2
2015-Mar-03 12:33S 29°52' E 031°07'4 4.1
2015-Mar-03 11:33S 29°53' E 031°12'7 7.2
2015-Mar-03 10:33S 29°52' E 031°04'3 3.5
2015-Mar-03 09:33S 29°54' E 031°00'2 2.5
2015-Mar-03 08:33S 29°53' E 031°03'8 8.5
2015-Mar-03 07:33S 29°54' E 031°12'3 3.2
2015-Mar-03 06:33S 29°54' E 031°16'0 0.1
2015-Mar-03 05:33S 29°54' E 031°16'4 3.9
2015-Mar-03 04:33S 29°53' E 031°12'8 8.5
2015-Mar-03 03:33S 29°52' E 031°02'2 1.1
2015-Mar-03 01:32S 29°54' E 031°00'0 0.0
2015-Mar-03 00:31S 29°54' E 031°00'0 0.0
2015-Mar-02 23:33S 29°54' E 031°00'0 0.0
2015-Mar-02 22:30S 29°54' E 031°00'0 0.0
2015-Mar-02 21:33S 29°54' E 031°00'0 0.0
2015-Mar-02 20:23S 29°54' E 031°00'1 1.1
2015-Mar-02 19:32S 29°53' E 031°00'5 5.2
2015-Mar-02 18:33S 29°52' E 031°06'7 7.3
2015-Mar-02 17:33S 29°54' E 031°14'4 3.8
2015-Mar-02 16:33S 29°55' E 031°18'4 3.9
2015-Mar-02 15:33S 29°54' E 031°14'7 6.8
2015-Mar-02 14:33S 29°52' E 031°06'5 5.3
2015-Mar-02 13:32S 29°54' E 031°00'0 0.0
2015-Mar-02 11:27S 29°54' E 031°00'0 0.0
2015-Mar-02 10:28S 29°54' E 031°00'0 0.0
2015-Mar-02 09:33S 29°54' E 031°00'0 0.0
2015-Mar-02 08:23S 29°54' E 031°00'0 0.0
2015-Mar-02 07:30S 29°54' E 031°00'0 0.0
2015-Mar-02 06:29S 29°54' E 031°00'0 0.0
2015-Mar-02 05:32S 29°54' E 031°00'0 0.0
2015-Mar-01 19:26S 29°54' E 031°00'3 3.6
2015-Mar-01 18:29S 29°52' E 031°04'5 4.9
2015-Mar-01 17:33S 29°51' E 031°09'1 1.2
2015-Mar-01 16:33S 29°51' E 031°10'8 7.8
2015-Mar-01 15:30S 29°52' E 031°01'2 1.8
2015-Mar-01 14:33S 29°54' E 031°00'0 0.0
2015-Mar-01 13:31S 29°54' E 031°00'1 1.1
2015-Mar-01 12:33S 29°53' E 031°00'6 5.8
2015-Mar-01 11:33S 29°54' E 031°07'1 1.5
2015-Mar-01 10:33S 29°53' E 031°06'5 4.6
2015-Mar-01 09:33S 29°53' E 031°00'1 0.7
2015-Mar-01 08:27S 29°54' E 031°00'0 0.0
2015-Mar-01 07:32S 29°54' E 031°00'0 0.0
2015-Mar-01 06:32S 29°54' E 031°00'0 0.0
2015-Feb-27 18:07S 29°54' E 031°00'0 0.0
2015-Feb-27 17:22S 29°54' E 031°00'1 1.4
2015-Feb-27 16:25S 29°53' E 031°00'6 6.5
2015-Feb-27 15:34S 29°51' E 031°06'3 3.0
2015-Feb-27 14:33S 29°50' E 031°10'1 1.3
2015-Feb-27 13:32S 29°51' E 031°09'6 6.4
2015-Feb-27 12:33S 29°52' E 031°02'2 1.1
2015-Feb-27 10:34S 29°54' E 031°00'0 0.0
2015-Feb-27 09:20S 29°54' E 031°00'0 0.0
2015-Feb-27 08:31S 29°54' E 031°00'0 0.0
2015-Feb-27 07:33S 29°54' E 031°00'0 0.0
2015-Feb-27 06:33S 29°54' E 031°00'0 0.0
2015-Feb-27 05:34S 29°54' E 031°00'3 0.2
2015-Feb-26 12:04S 29°52' E 031°03'5 9.9
2015-Feb-26 11:33S 29°48' E 031°07'8 8.1
2015-Feb-26 10:33S 29°42' E 031°12'0 0.2
2015-Feb-26 09:33S 29°42' E 031°12'7 7.3
2015-Feb-26 08:33S 29°48' E 031°07'7 6.8
2015-Feb-26 07:33S 29°52' E 031°01'2 2.0
2015-Feb-26 06:33S 29°54' E 031°00'0 0.0
2015-Feb-26 05:33S 29°54' E 031°00'0 0.0
2015-Feb-26 04:33S 29°54' E 031°00'0 0.0
2015-Feb-26 03:33S 29°54' E 031°00'0 0.0
2015-Feb-26 02:33S 29°54' E 031°00'0 0.0
2015-Feb-26 01:33S 29°54' E 031°00'0 0.0
2015-Feb-26 00:32S 29°54' E 031°00'0 0.0
2015-Feb-25 23:33S 29°54' E 031°00'0 0.0
2015-Feb-25 22:33S 29°54' E 031°00'0 0.0
2015-Feb-25 21:33S 29°54' E 031°00'0 0.0
2015-Feb-25 20:33S 29°54' E 031°00'0 0.0
2015-Feb-25 19:33S 29°54' E 031°00'0 0.0
2015-Feb-25 18:33S 29°54' E 031°00'0 0.0
2015-Feb-25 17:33S 29°54' E 031°00'0 0.0
2015-Feb-25 16:30S 29°54' E 031°00'0 0.0
2015-Feb-25 15:29S 29°54' E 031°00'0 0.0
2015-Feb-25 14:28S 29°54' E 031°00'0 0.0
2015-Feb-25 13:32S 29°54' E 031°00'0 0.0
2015-Feb-25 12:33S 29°54' E 031°00'0 0.0
2015-Feb-25 11:11S 29°54' E 031°00'0 0.0
2015-Feb-25 10:32S 29°54' E 031°00'0 0.0
2015-Feb-25 09:32S 29°54' E 031°00'0 0.0
2015-Feb-25 08:32S 29°54' E 031°00'0 0.0
2015-Feb-25 07:33S 29°54' E 031°00'0 0.0
2015-Feb-25 06:34S 29°54' E 031°00'0 0.0
2015-Feb-25 05:33S 29°54' E 031°00'0 0.0
2015-Feb-24 13:09S 29°54' E 031°00'0 0.0
2015-Feb-24 12:33S 29°54' E 031°00'0 0.0
2015-Feb-24 11:32S 29°54' E 031°00'0 0.0
2015-Feb-24 10:31S 29°54' E 031°00'0 0.0
2015-Feb-24 09:33S 29°54' E 031°00'0 0.0
2015-Feb-24 08:31S 29°54' E 031°00'0 0.0
2015-Feb-24 07:33S 29°54' E 031°00'0 0.0
2015-Feb-24 06:33S 29°54' E 031°00'0 0.0
2015-Feb-24 05:31S 29°54' E 031°00'0 0.0
2015-Feb-23 16:13S 29°54' E 031°00'2 3.4
2015-Feb-23 15:33S 29°52' E 031°02'3 3.1
2015-Feb-23 14:33S 29°55' E 031°04'4 3.6
2015-Feb-23 13:33S 29°58' E 031°07'3 2.6
2015-Feb-23 12:31S 29°55' E 031°07'4 4.0
2015-Feb-23 11:34S 29°52' E 031°04'4 4.1
2015-Feb-23 10:33S 29°54' E 031°00'0 0.0
2015-Feb-23 09:33S 29°54' E 031°00'0 0.0
2015-Feb-23 08:33S 29°54' E 031°00'0 0.0
2015-Feb-23 07:34S 29°54' E 031°00'0 0.0
2015-Feb-22 15:15S 29°54' E 031°00'3 4.3
2015-Feb-22 14:33S 29°52' E 031°03'5 4.6
2015-Feb-22 13:33S 29°52' E 031°08'4 3.6
2015-Feb-22 12:33S 29°52' E 031°04'4 2.0
2015-Feb-22 10:31S 29°54' E 031°00'0 0.0
2015-Feb-22 09:33S 29°54' E 031°00'0 0.0
2015-Feb-22 08:33S 29°54' E 031°00'0 0.0
2015-Feb-22 07:31S 29°54' E 031°00'0 0.0
2015-Feb-22 06:33S 29°54' E 031°00'0 0.0
2015-Feb-22 05:32S 29°54' E 031°00'0 0.0
2015-Feb-22 04:33S 29°54' E 031°00'0 0.0
2015-Feb-22 03:33S 29°54' E 031°00'0 0.0
2015-Feb-22 02:33S 29°54' E 031°00'0 0.0
2015-Feb-22 01:33S 29°54' E 031°00'0 0.0
2015-Feb-21 22:25S 29°54' E 031°00'2 2.7
2015-Feb-21 21:34S 29°52' E 031°02'4 4.4
2015-Feb-21 20:34S 29°51' E 031°07'6 5.9
2015-Feb-21 19:33S 29°48' E 031°13'5 5.5
2015-Feb-21 18:33S 29°44' E 031°17'  
Track history (hours):
 
Tides and Currents Weather Stations Pressure Air Temp Water Temp Dewpoint Dewpoint Depression Visibility Wind Speed Wind Dir Waves Ship Positions

MV Causeway Supplier

Last reported at 2015-Mar-03 17:33 UTC. Time now 2015-Mar-04 00:16 UTC.
Position S 29°53' E 031°03'.

Length 22 m; draft 2.7 m.

Type: . MMSI: 601041200.

Date/timePositionNaut miles runAvg speedWind from/ knotsBaromVisibWave heightAir tempDewpointWater temp
2015-Mar-03 17:33S 29°53' E 031°03'8 7.9
2015-Mar-03 16:33S 29°53' E 031°12'4 3.5
2015-Mar-03 15:33S 29°53' E 031°08'6 6.3
2015-Mar-03 14:33S 29°52' E 031°01'2 1.7
2015-Mar-03 13:33S 29°54' E 031°00'6 6.2
2015-Mar-03 12:33S 29°52' E 031°07'4 4.1
2015-Mar-03 11:33S 29°53' E 031°12'7 7.2
2015-Mar-03 10:33S 29°52' E 031°04'3 3.5
2015-Mar-03 09:33S 29°54' E 031°00'2 2.5
2015-Mar-03 08:33S 29°53' E 031°03'8 8.5
2015-Mar-03 07:33S 29°54' E 031°12'3 3.2
2015-Mar-03 06:33S 29°54' E 031°16'0 0.1
2015-Mar-03 05:33S 29°54' E 031°16'4 3.9
2015-Mar-03 04:33S 29°53' E 031°12'8 8.5
2015-Mar-03 03:33S 29°52' E 031°02'2 1.1
2015-Mar-03 01:32S 29°54' E 031°00'0 0.0
2015-Mar-03 00:31S 29°54' E 031°00'0 0.0
2015-Mar-02 23:33S 29°54' E 031°00'0 0.0
2015-Mar-02 22:30S 29°54' E 031°00'0 0.0
2015-Mar-02 21:33S 29°54' E 031°00'0 0.0
2015-Mar-02 20:23S 29°54' E 031°00'1 1.1
2015-Mar-02 19:32S 29°53' E 031°00'5 5.2
2015-Mar-02 18:33S 29°52' E 031°06'7 7.3
2015-Mar-02 17:33S 29°54' E 031°14'4 3.8
2015-Mar-02 16:33S 29°55' E 031°18'4 3.9
2015-Mar-02 15:33S 29°54' E 031°14'7 6.8
2015-Mar-02 14:33S 29°52' E 031°06'5 5.3
2015-Mar-02 13:32S 29°54' E 031°00'0 0.0
2015-Mar-02 11:27S 29°54' E 031°00'0 0.0
2015-Mar-02 10:28S 29°54' E 031°00'0 0.0
2015-Mar-02 09:33S 29°54' E 031°00'0 0.0
2015-Mar-02 08:23S 29°54' E 031°00'0 0.0
2015-Mar-02 07:30S 29°54' E 031°00'0 0.0
2015-Mar-02 06:29S 29°54' E 031°00'0 0.0
2015-Mar-02 05:32S 29°54' E 031°00'0 0.0
2015-Mar-01 19:26S 29°54' E 031°00'3 3.6
2015-Mar-01 18:29S 29°52' E 031°04'5 4.9
2015-Mar-01 17:33S 29°51' E 031°09'1 1.2
2015-Mar-01 16:33S 29°51' E 031°10'8 7.8
2015-Mar-01 15:30S 29°52' E 031°01'2 1.8
2015-Mar-01 14:33S 29°54' E 031°00'0 0.0
2015-Mar-01 13:31S 29°54' E 031°00'1 1.1
2015-Mar-01 12:33S 29°53' E 031°00'6 5.8
2015-Mar-01 11:33S 29°54' E 031°07'1 1.5
2015-Mar-01 10:33S 29°53' E 031°06'5 4.6
2015-Mar-01 09:33S 29°53' E 031°00'1 0.7
2015-Mar-01 08:27S 29°54' E 031°00'0 0.0
2015-Mar-01 07:32S 29°54' E 031°00'0 0.0
2015-Mar-01 06:32S 29°54' E 031°00'0 0.0
2015-Feb-27 18:07S 29°54' E 031°00'0 0.0
2015-Feb-27 17:22S 29°54' E 031°00'1 1.4
2015-Feb-27 16:25S 29°53' E 031°00'6 6.5
2015-Feb-27 15:34S 29°51' E 031°06'3 3.0
2015-Feb-27 14:33S 29°50' E 031°10'1 1.3
2015-Feb-27 13:32S 29°51' E 031°09'6 6.4
2015-Feb-27 12:33S 29°52' E 031°02'2 1.1
2015-Feb-27 10:34S 29°54' E 031°00'0 0.0
2015-Feb-27 09:20S 29°54' E 031°00'0 0.0
2015-Feb-27 08:31S 29°54' E 031°00'0 0.0
2015-Feb-27 07:33S 29°54' E 031°00'0 0.0
2015-Feb-27 06:33S 29°54' E 031°00'0 0.0
2015-Feb-27 05:34S 29°54' E 031°00'3 0.2
2015-Feb-26 12:04S 29°52' E 031°03'5 9.9
2015-Feb-26 11:33S 29°48' E 031°07'8 8.1
2015-Feb-26 10:33S 29°42' E 031°12'0 0.2
2015-Feb-26 09:33S 29°42' E 031°12'7 7.3
2015-Feb-26 08:33S 29°48' E 031°07'7 6.8
2015-Feb-26 07:33S 29°52' E 031°01'2 2.0
2015-Feb-26 06:33S 29°54' E 031°00'0 0.0
2015-Feb-26 05:33S 29°54' E 031°00'0 0.0
2015-Feb-26 04:33S 29°54' E 031°00'0 0.0
2015-Feb-26 03:33S 29°54' E 031°00'0 0.0
2015-Feb-26 02:33S 29°54' E 031°00'0 0.0
2015-Feb-26 01:33S 29°54' E 031°00'0 0.0
2015-Feb-26 00:32S 29°54' E 031°00'0 0.0
2015-Feb-25 23:33S 29°54' E 031°00'0 0.0
2015-Feb-25 22:33S 29°54' E 031°00'0 0.0
2015-Feb-25 21:33S 29°54' E 031°00'0 0.0
2015-Feb-25 20:33S 29°54' E 031°00'0 0.0
2015-Feb-25 19:33S 29°54' E 031°00'0 0.0
2015-Feb-25 18:33S 29°54' E 031°00'0 0.0
2015-Feb-25 17:33S 29°54' E 031°00'0 0.0
2015-Feb-25 16:30S 29°54' E 031°00'0 0.0
2015-Feb-25 15:29S 29°54' E 031°00'0 0.0
2015-Feb-25 14:28S 29°54' E 031°00'0 0.0
2015-Feb-25 13:32S 29°54' E 031°00'0 0.0
2015-Feb-25 12:33S 29°54' E 031°00'0 0.0
2015-Feb-25 11:11S 29°54' E 031°00'0 0.0
2015-Feb-25 10:32S 29°54' E 031°00'0 0.0
2015-Feb-25 09:32S 29°54' E 031°00'0 0.0
2015-Feb-25 08:32S 29°54' E 031°00'0 0.0
2015-Feb-25 07:33S 29°54' E 031°00'0 0.0
2015-Feb-25 06:34S 29°54' E 031°00'0 0.0
2015-Feb-25 05:33S 29°54' E 031°00'0 0.0
2015-Feb-24 13:09S 29°54' E 031°00'0 0.0
2015-Feb-24 12:33S 29°54' E 031°00'0 0.0
2015-Feb-24 11:32S 29°54' E 031°00'0 0.0
2015-Feb-24 10:31S 29°54' E 031°00'0 0.0
2015-Feb-24 09:33S 29°54' E 031°00'0 0.0
2015-Feb-24 08:31S 29°54' E 031°00'0 0.0
2015-Feb-24 07:33S 29°54' E 031°00'0 0.0
2015-Feb-24 06:33S 29°54' E 031°00'0 0.0
2015-Feb-24 05:31S 29°54' E 031°00'0 0.0
2015-Feb-23 16:13S 29°54' E 031°00'2 3.4
2015-Feb-23 15:33S 29°52' E 031°02'3 3.1
2015-Feb-23 14:33S 29°55' E 031°04'4 3.6
2015-Feb-23 13:33S 29°58' E 031°07'3 2.6
2015-Feb-23 12:31S 29°55' E 031°07'4 4.0
2015-Feb-23 11:34S 29°52' E 031°04'4 4.1
2015-Feb-23 10:33S 29°54' E 031°00'0 0.0
2015-Feb-23 09:33S 29°54' E 031°00'0 0.0
2015-Feb-23 08:33S 29°54' E 031°00'0 0.0
2015-Feb-23 07:34S 29°54' E 031°00'0 0.0
2015-Feb-22 15:15S 29°54' E 031°00'3 4.3
2015-Feb-22 14:33S 29°52' E 031°03'5 4.6
2015-Feb-22 13:33S 29°52' E 031°08'4 3.6
2015-Feb-22 12:33S 29°52' E 031°04'4 2.0
2015-Feb-22 10:31S 29°54' E 031°00'0 0.0
2015-Feb-22 09:33S 29°54' E 031°00'0 0.0
2015-Feb-22 08:33S 29°54' E 031°00'0 0.0
2015-Feb-22 07:31S 29°54' E 031°00'0 0.0
2015-Feb-22 06:33S 29°54' E 031°00'0 0.0
2015-Feb-22 05:32S 29°54' E 031°00'0 0.0
2015-Feb-22 04:33S 29°54' E 031°00'0 0.0
2015-Feb-22 03:33S 29°54' E 031°00'0 0.0
2015-Feb-22 02:33S 29°54' E 031°00'0 0.0
2015-Feb-22 01:33S 29°54' E 031°00'0 0.0
2015-Feb-21 22:25S 29°54' E 031°00'2 2.7
2015-Feb-21 21:34S 29°52' E 031°02'4 4.4
2015-Feb-21 20:34S 29°51' E 031°07'6 5.9
2015-Feb-21 19:33S 29°48' E 031°13'5 5.5
2015-Feb-21 18:33S 29°44' E 031°17'  

Dump ship's entire track history